Seiyu Maru — JD3189 — position and weather

sailwx.info

Track history (hours):
 
Tides and Currents Weather Stations Pressure Air Temp Water Temp Dewpoint Dewpoint Depression Visibility Wind Speed Wind Dir Waves Ship Positions

Seiyu Maru

Last reported at 2015-Apr-01 08:23 UTC. Time now 2015-Apr-02 04:26 UTC.
Position N 35°08' E 139°44'.

Length 75 m; draft 4.5 m.

Type: Cargo ship. MMSI: 431002433.

Date/timePositionNaut miles runAvg speedWind from/ knotsBaromVisibWave heightAir tempDewpointWater temp
2015-Apr-01 08:23N 35°08' E 139°44'8 9.9
2015-Apr-01 07:33N 35°16' E 139°46'9 9.3
2015-Apr-01 06:33N 35°25' E 139°45'6 6.1
2015-Apr-01 05:33N 35°22' E 139°51'0 0.0
2015-Apr-01 04:33N 35°22' E 139°51'0 0.0
2015-Apr-01 03:33N 35°22' E 139°51'0 0.0
2015-Apr-01 02:33N 35°22' E 139°51'0 0.2
2015-Apr-01 01:33N 35°21' E 139°51'0 0.0
2015-Apr-01 00:33N 35°21' E 139°51'0 0.0
2015-Mar-31 23:33N 35°21' E 139°51'0 0.0
2015-Mar-31 22:33N 35°21' E 139°51'0 0.0
2015-Mar-31 21:33N 35°21' E 139°51'2 2.5
2015-Mar-31 20:33N 35°24' E 139°51'1212.3
2015-Mar-31 19:33N 35°33' E 140°01'5 4.9
2015-Mar-31 18:33N 35°37' E 140°05'0 0.0
2015-Mar-31 17:14N 35°37' E 140°05'0 0.0
2015-Mar-31 16:26N 35°37' E 140°05'0 0.0
2015-Mar-31 15:26N 35°37' E 140°05'0 0.0
2015-Mar-31 14:26N 35°37' E 140°05'0 0.0
2015-Mar-31 13:32N 35°37' E 140°05'0 0.0
2015-Mar-31 12:32N 35°37' E 140°05'0 0.0
2015-Mar-31 11:14N 35°37' E 140°05'0 0.0
2015-Mar-31 10:26N 35°37' E 140°05'0 0.0
2015-Mar-31 09:26N 35°37' E 140°05'0 0.0
2015-Mar-31 08:32N 35°37' E 140°05'0 0.0
2015-Mar-31 07:14N 35°37' E 140°05'0 0.0
2015-Mar-31 06:20N 35°37' E 140°05'0 0.0
2015-Mar-31 05:32N 35°37' E 140°05'0 0.0
2015-Mar-31 04:32N 35°37' E 140°05'0 0.0
2015-Mar-31 03:32N 35°37' E 140°05'0 0.0
2015-Mar-31 02:29N 35°37' E 140°05'0 0.0
2015-Mar-31 01:26N 35°37' E 140°05'0 0.0
2015-Mar-31 00:32N 35°37' E 140°05'0 0.0
2015-Mar-30 23:26N 35°37' E 140°05'1 1.1
2015-Mar-30 22:33N 35°36' E 140°05'2 1.7
2015-Mar-30 21:31N 35°35' E 140°04'0 0.0
2015-Mar-30 20:31N 35°35' E 140°04'0 0.0
2015-Mar-30 19:31N 35°35' E 140°04'0 0.0
2015-Mar-30 18:25N 35°35' E 140°03'0 0.0
2015-Mar-30 17:31N 35°35' E 140°03'0 0.0
2015-Mar-30 16:25N 35°35' E 140°03'0 0.0
2015-Mar-30 15:31N 35°35' E 140°03'0 0.0
2015-Mar-30 14:31N 35°35' E 140°03'0 0.0
2015-Mar-30 13:25N 35°35' E 140°03'0 0.0
2015-Mar-30 12:25N 35°35' E 140°03'0 0.0
2015-Mar-30 11:25N 35°35' E 140°03'0 0.0
2015-Mar-30 10:19N 35°35' E 140°04'0 0.0
2015-Mar-30 09:25N 35°35' E 140°04'0 0.0
2015-Mar-30 08:31N 35°35' E 140°04'0 0.0
2015-Mar-30 07:31N 35°35' E 140°04'0 0.0
2015-Mar-30 06:31N 35°35' E 140°04'0 0.0
2015-Mar-30 05:19N 35°35' E 140°04'0 0.0
2015-Mar-30 04:25N 35°35' E 140°04'0 0.1
2015-Mar-30 03:31N 35°35' E 140°03'0 0.0
2015-Mar-30 02:31N 35°35' E 140°03'0 0.0
2015-Mar-30 01:31N 35°35' E 140°03'0 0.0
2015-Mar-30 00:31N 35°35' E 140°03'0 0.0
2015-Mar-29 23:25N 35°35' E 140°03'0 0.0
2015-Mar-29 22:31N 35°35' E 140°03'0 0.0
2015-Mar-29 21:31N 35°35' E 140°03'0 0.0
2015-Mar-29 20:19N 35°35' E 140°03'0 0.0
2015-Mar-29 19:31N 35°35' E 140°03'4 3.8
2015-Mar-29 18:33N 35°33' E 139°59'1111.1
2015-Mar-29 17:33N 35°26' E 139°49'1010.0
2015-Mar-29 16:34N 35°17' E 139°46'1110.6
2015-Mar-29 15:33N 35°06' E 139°43'  
2015-Mar-26 10:15N 33°48' E 130°22'811.9
2015-Mar-26 09:33N 33°41' E 130°16'8 7.9
2015-Mar-26 08:34N 33°37' E 130°24'0 0.0
2015-Mar-26 07:33N 33°37' E 130°24'0 0.0
2015-Mar-26 06:32N 33°37' E 130°24'0 0.0
2015-Mar-26 05:32N 33°37' E 130°24'0 0.0
2015-Mar-26 04:33N 33°37' E 130°24'0 0.0
2015-Mar-26 03:32N 33°37' E 130°24'0 0.0
2015-Mar-26 02:33N 33°37' E 130°24'0 0.0
2015-Mar-26 01:32N 33°37' E 130°24'2 1.9
2015-Mar-26 00:33N 33°37' E 130°22'1 1.3
2015-Mar-25 23:33N 33°38' E 130°21'0 0.1
2015-Mar-25 22:33N 33°38' E 130°21'0 0.1
2015-Mar-25 21:32N 33°38' E 130°21'0 0.1
2015-Mar-25 20:32N 33°38' E 130°21'0 0.0
2015-Mar-25 19:33N 33°38' E 130°21'0 0.0
2015-Mar-25 18:32N 33°38' E 130°21'0 0.1
2015-Mar-25 17:33N 33°38' E 130°21'0 0.1
2015-Mar-25 16:33N 33°38' E 130°21'0 0.0
2015-Mar-25 15:33N 33°38' E 130°21'0 0.0
2015-Mar-25 14:32N 33°38' E 130°21'0 0.0
2015-Mar-25 13:32N 33°38' E 130°21'0 0.0
2015-Mar-25 12:32N 33°38' E 130°21'8 7.7
2015-Mar-25 11:33N 33°45' E 130°18'1312.3
2015-Mar-25 10:28N 33°55' E 130°28'1111.9
2015-Mar-25 09:33N 33°58' E 130°41'  
Track history (hours):
 
Tides and Currents Weather Stations Pressure Air Temp Water Temp Dewpoint Dewpoint Depression Visibility Wind Speed Wind Dir Waves Ship Positions

Seiyu Maru

Last reported at 2015-Apr-01 08:23 UTC. Time now 2015-Apr-02 04:26 UTC.
Position N 35°08' E 139°44'.

Length 75 m; draft 4.5 m.

Type: Cargo ship. MMSI: 431002433.

Date/timePositionNaut miles runAvg speedWind from/ knotsBaromVisibWave heightAir tempDewpointWater temp
2015-Apr-01 08:23N 35°08' E 139°44'8 9.9
2015-Apr-01 07:33N 35°16' E 139°46'9 9.3
2015-Apr-01 06:33N 35°25' E 139°45'6 6.1
2015-Apr-01 05:33N 35°22' E 139°51'0 0.0
2015-Apr-01 04:33N 35°22' E 139°51'0 0.0
2015-Apr-01 03:33N 35°22' E 139°51'0 0.0
2015-Apr-01 02:33N 35°22' E 139°51'0 0.2
2015-Apr-01 01:33N 35°21' E 139°51'0 0.0
2015-Apr-01 00:33N 35°21' E 139°51'0 0.0
2015-Mar-31 23:33N 35°21' E 139°51'0 0.0
2015-Mar-31 22:33N 35°21' E 139°51'0 0.0
2015-Mar-31 21:33N 35°21' E 139°51'2 2.5
2015-Mar-31 20:33N 35°24' E 139°51'1212.3
2015-Mar-31 19:33N 35°33' E 140°01'5 4.9
2015-Mar-31 18:33N 35°37' E 140°05'0 0.0
2015-Mar-31 17:14N 35°37' E 140°05'0 0.0
2015-Mar-31 16:26N 35°37' E 140°05'0 0.0
2015-Mar-31 15:26N 35°37' E 140°05'0 0.0
2015-Mar-31 14:26N 35°37' E 140°05'0 0.0
2015-Mar-31 13:32N 35°37' E 140°05'0 0.0
2015-Mar-31 12:32N 35°37' E 140°05'0 0.0
2015-Mar-31 11:14N 35°37' E 140°05'0 0.0
2015-Mar-31 10:26N 35°37' E 140°05'0 0.0
2015-Mar-31 09:26N 35°37' E 140°05'0 0.0
2015-Mar-31 08:32N 35°37' E 140°05'0 0.0
2015-Mar-31 07:14N 35°37' E 140°05'0 0.0
2015-Mar-31 06:20N 35°37' E 140°05'0 0.0
2015-Mar-31 05:32N 35°37' E 140°05'0 0.0
2015-Mar-31 04:32N 35°37' E 140°05'0 0.0
2015-Mar-31 03:32N 35°37' E 140°05'0 0.0
2015-Mar-31 02:29N 35°37' E 140°05'0 0.0
2015-Mar-31 01:26N 35°37' E 140°05'0 0.0
2015-Mar-31 00:32N 35°37' E 140°05'0 0.0
2015-Mar-30 23:26N 35°37' E 140°05'1 1.1
2015-Mar-30 22:33N 35°36' E 140°05'2 1.7
2015-Mar-30 21:31N 35°35' E 140°04'0 0.0
2015-Mar-30 20:31N 35°35' E 140°04'0 0.0
2015-Mar-30 19:31N 35°35' E 140°04'0 0.0
2015-Mar-30 18:25N 35°35' E 140°03'0 0.0
2015-Mar-30 17:31N 35°35' E 140°03'0 0.0
2015-Mar-30 16:25N 35°35' E 140°03'0 0.0
2015-Mar-30 15:31N 35°35' E 140°03'0 0.0
2015-Mar-30 14:31N 35°35' E 140°03'0 0.0
2015-Mar-30 13:25N 35°35' E 140°03'0 0.0
2015-Mar-30 12:25N 35°35' E 140°03'0 0.0
2015-Mar-30 11:25N 35°35' E 140°03'0 0.0
2015-Mar-30 10:19N 35°35' E 140°04'0 0.0
2015-Mar-30 09:25N 35°35' E 140°04'0 0.0
2015-Mar-30 08:31N 35°35' E 140°04'0 0.0
2015-Mar-30 07:31N 35°35' E 140°04'0 0.0
2015-Mar-30 06:31N 35°35' E 140°04'0 0.0
2015-Mar-30 05:19N 35°35' E 140°04'0 0.0
2015-Mar-30 04:25N 35°35' E 140°04'0 0.1
2015-Mar-30 03:31N 35°35' E 140°03'0 0.0
2015-Mar-30 02:31N 35°35' E 140°03'0 0.0
2015-Mar-30 01:31N 35°35' E 140°03'0 0.0
2015-Mar-30 00:31N 35°35' E 140°03'0 0.0
2015-Mar-29 23:25N 35°35' E 140°03'0 0.0
2015-Mar-29 22:31N 35°35' E 140°03'0 0.0
2015-Mar-29 21:31N 35°35' E 140°03'0 0.0
2015-Mar-29 20:19N 35°35' E 140°03'0 0.0
2015-Mar-29 19:31N 35°35' E 140°03'4 3.8
2015-Mar-29 18:33N 35°33' E 139°59'1111.1
2015-Mar-29 17:33N 35°26' E 139°49'1010.0
2015-Mar-29 16:34N 35°17' E 139°46'1110.6
2015-Mar-29 15:33N 35°06' E 139°43'  
2015-Mar-26 10:15N 33°48' E 130°22'811.9
2015-Mar-26 09:33N 33°41' E 130°16'8 7.9
2015-Mar-26 08:34N 33°37' E 130°24'0 0.0
2015-Mar-26 07:33N 33°37' E 130°24'0 0.0
2015-Mar-26 06:32N 33°37' E 130°24'0 0.0
2015-Mar-26 05:32N 33°37' E 130°24'0 0.0
2015-Mar-26 04:33N 33°37' E 130°24'0 0.0
2015-Mar-26 03:32N 33°37' E 130°24'0 0.0
2015-Mar-26 02:33N 33°37' E 130°24'0 0.0
2015-Mar-26 01:32N 33°37' E 130°24'2 1.9
2015-Mar-26 00:33N 33°37' E 130°22'1 1.3
2015-Mar-25 23:33N 33°38' E 130°21'0 0.1
2015-Mar-25 22:33N 33°38' E 130°21'0 0.1
2015-Mar-25 21:32N 33°38' E 130°21'0 0.1
2015-Mar-25 20:32N 33°38' E 130°21'0 0.0
2015-Mar-25 19:33N 33°38' E 130°21'0 0.0
2015-Mar-25 18:32N 33°38' E 130°21'0 0.1
2015-Mar-25 17:33N 33°38' E 130°21'0 0.1
2015-Mar-25 16:33N 33°38' E 130°21'0 0.0
2015-Mar-25 15:33N 33°38' E 130°21'0 0.0
2015-Mar-25 14:32N 33°38' E 130°21'0 0.0
2015-Mar-25 13:32N 33°38' E 130°21'0 0.0
2015-Mar-25 12:32N 33°38' E 130°21'8 7.7
2015-Mar-25 11:33N 33°45' E 130°18'1312.3
2015-Mar-25 10:28N 33°55' E 130°28'1111.9
2015-Mar-25 09:33N 33°58' E 130°41'  

Dump ship's entire track history